Time;durP1;ratioP1;P1;durP2;ratioP2;P2;SDS_P1;SDS_P2;PMS_P1;PMS_P2;Temp;Humidity;BMP_temperature;BMP_pressure;BME280_temperature;BME280_humidity;BME280_pressure;Samples;Min_cycle;Max_cycle;Signal;HPM_P1;HPM_P2
2023/06/13 00:01:04;;;;;;;7.75;6.22;;;17.80;87.90;;;;;;5074965;28;20103;-38
2023/06/13 00:03:30;;;;;;;7.10;5.85;;;17.80;88.10;;;;;;5073237;28;20189;-39
2023/06/13 00:06:01;;;;;;;10.20;6.03;;;17.70;88.10;;;;;;5074624;28;20051;-38
2023/06/13 00:08:31;;;;;;;10.35;7.38;;;17.70;88.50;;;;;;5073750;28;20442;-38
2023/06/13 00:10:58;;;;;;;9.43;6.07;;;17.60;89.00;;;;;;5073643;28;20541;-38
2023/06/13 00:13:25;;;;;;;7.30;6.55;;;17.60;88.30;;;;;;5074087;28;20456;-38
2023/06/13 00:15:56;;;;;;;8.55;6.88;;;17.50;88.40;;;;;;5074751;28;20131;-38
2023/06/13 00:18:22;;;;;;;10.63;6.80;;;17.50;88.40;;;;;;5073546;28;20404;-38
2023/06/13 00:20:52;;;;;;;8.73;6.43;;;17.40;88.50;;;;;;5074462;28;20040;-38
2023/06/13 00:23:17;;;;;;;7.50;6.30;;;17.40;88.40;;;;;;5072549;28;20064;-38
2023/06/13 00:25:43;;;;;;;8.68;6.60;;;17.30;88.30;;;;;;5073655;28;20056;-38
2023/06/13 00:28:10;;;;;;;12.45;6.38;;;17.30;88.30;;;;;;5072733;28;20052;-38
2023/06/13 00:30:35;;;;;;;10.23;6.70;;;17.30;88.10;;;;;;5073768;28;20097;-38
2023/06/13 00:33:01;;;;;;;7.00;6.30;;;17.40;88.00;;;;;;5073223;28;20040;-38
2023/06/13 00:35:26;;;;;;;9.57;6.85;;;17.40;87.80;;;;;;5073289;28;20086;-39
2023/06/13 00:37:54;;;;;;;9.45;7.38;;;17.40;87.70;;;;;;5062360;28;20059;-38
2023/06/13 00:40:23;;;;;;;10.88;6.72;;;17.40;87.60;;;;;;5068393;28;20044;-38
2023/06/13 00:42:53;;;;;;;10.57;6.90;;;17.40;87.30;;;;;;5072508;28;20367;-38
2023/06/13 00:45:24;;;;;;;9.05;7.45;;;17.50;87.10;;;;;;5071988;28;20040;-38
2023/06/13 00:48:09;;;;;;;9.35;6.65;;;17.50;87.10;;;;;;5071794;28;20143;-38
2023/06/13 00:50:40;;;;;;;11.07;7.13;;;17.60;87.00;;;;;;5073906;28;20532;-38
2023/06/13 00:53:09;;;;;;;10.07;7.03;;;17.60;86.90;;;;;;5073267;28;20336;-38
2023/06/13 00:55:36;;;;;;;11.20;7.10;;;17.60;87.10;;;;;;5073770;28;20048;-38
2023/06/13 00:58:11;;;;;;;7.78;6.25;;;17.50;87.10;;;;;;5072637;28;20056;-38
2023/06/13 01:00:43;;;;;;;10.63;7.03;;;17.60;87.00;;;;;;5073717;28;20055;-38
2023/06/13 01:03:15;;;;;;;10.03;6.97;;;17.60;87.20;;;;;;5073649;28;20101;-39
2023/06/13 01:05:46;;;;;;;11.75;6.88;;;17.60;87.30;;;;;;5073714;28;20339;-38
2023/06/13 01:08:16;;;;;;;10.10;7.03;;;17.50;87.50;;;;;;5072061;28;20416;-38
2023/06/13 01:10:44;;;;;;;8.98;6.43;;;17.50;88.20;;;;;;5060935;28;20044;-38
2023/06/13 01:13:18;;;;;;;9.40;6.78;;;17.50;87.70;;;;;;5073518;28;20052;-38
2023/06/13 01:15:51;;;;;;;10.68;6.93;;;17.40;87.80;;;;;;5074128;28;20071;-38
2023/06/13 01:18:22;;;;;;;8.82;6.07;;;17.40;88.30;;;;;;5073241;28;20052;-39
2023/06/13 01:20:56;;;;;;;8.95;6.80;;;17.30;88.20;;;;;;5073804;28;20040;-38
2023/06/13 01:23:41;;;;;;;9.65;6.70;;;17.30;88.40;;;;;;5072912;28;20052;-38
2023/06/13 01:26:22;;;;;;;8.75;6.88;;;17.20;88.50;;;;;;5073658;28;20044;-38
2023/06/13 01:28:52;;;;;;;9.63;7.10;;;17.20;88.90;;;;;;5073660;28;20094;-38
2023/06/13 01:31:22;;;;;;;8.85;7.25;;;17.10;88.80;;;;;;5074296;28;20047;-38
2023/06/13 01:33:48;;;;;;;9.85;6.72;;;17.10;88.90;;;;;;5073771;28;20040;-38
2023/06/13 01:36:14;;;;;;;14.27;7.00;;;17.10;89.20;;;;;;5073884;28;20052;-38
2023/06/13 01:38:40;;;;;;;9.90;6.57;;;17.00;89.20;;;;;;5062539;28;20160;-38
2023/06/13 01:41:06;;;;;;;10.32;6.82;;;17.00;89.50;;;;;;5069627;28;20176;-38
2023/06/13 01:43:32;;;;;;;8.65;6.82;;;16.90;89.90;;;;;;5071887;28;20104;-38
2023/06/13 01:46:06;;;;;;;11.07;6.38;;;16.90;89.90;;;;;;5072974;28;20457;-38
2023/06/13 01:48:52;;;;;;;9.65;6.60;;;16.80;90.00;;;;;;5076829;28;20457;-38
2023/06/13 01:51:47;;;;;;;7.85;6.47;;;16.80;90.20;;;;;;5063631;28;20576;-38
2023/06/13 01:54:17;;;;;;;10.85;7.05;;;16.70;90.30;;;;;;5032906;28;20053;-38
2023/06/13 01:56:44;;;;;;;8.48;6.95;;;16.60;90.40;;;;;;5017240;28;20049;-38
2023/06/13 01:59:13;;;;;;;10.85;6.90;;;16.60;90.50;;;;;;5032466;28;20077;-38
2023/06/13 02:01:40;;;;;;;8.93;6.28;;;16.50;90.60;;;;;;5020411;28;20049;-38
2023/06/13 02:04:06;;;;;;;10.88;6.90;;;16.40;90.70;;;;;;5017143;28;20072;-38
2023/06/13 02:06:32;;;;;;;7.88;6.50;;;16.40;90.80;;;;;;5030552;28;20084;-38
2023/06/13 02:08:58;;;;;;;7.55;6.72;;;16.30;90.90;;;;;;5013636;28;20107;-38
2023/06/13 02:11:36;;;;;;;8.23;6.63;;;16.30;91.10;;;;;;5000795;28;20056;-38
2023/06/13 02:14:01;;;;;;;13.07;6.95;;;16.20;91.20;;;;;;4999679;28;20049;-38
2023/06/13 02:16:30;;;;;;;8.80;7.57;;;16.20;91.20;;;;;;4993659;28;20583;-38
2023/06/13 02:18:59;;;;;;;11.77;7.20;;;16.10;91.50;;;;;;5016073;28;20060;-38
2023/06/13 02:21:25;;;;;;;8.02;7.20;;;16.10;91.50;;;;;;5033062;28;20144;-39
2023/06/13 02:23:51;;;;;;;7.03;5.78;;;16.00;91.60;;;;;;5031964;28;20067;-38
2023/06/13 02:26:17;;;;;;;11.27;6.90;;;16.00;91.60;;;;;;5032634;28;20057;-38
2023/06/13 02:28:42;;;;;;;9.55;6.93;;;16.00;91.70;;;;;;5032881;28;20547;-38
2023/06/13 02:31:08;;;;;;;11.55;6.65;;;15.90;91.70;;;;;;5063313;28;20056;-38
2023/06/13 02:33:36;;;;;;;11.60;6.78;;;15.90;91.80;;;;;;5076251;28;20060;-38
2023/06/13 02:36:02;;;;;;;9.30;6.65;;;15.90;91.90;;;;;;5074589;28;20480;-38
2023/06/13 02:38:28;;;;;;;10.05;6.43;;;15.80;92.00;;;;;;5065011;28;20483;-38
2023/06/13 02:40:54;;;;;;;10.40;6.70;;;15.80;92.00;;;;;;5069641;28;20052;-38
2023/06/13 02:43:20;;;;;;;11.07;6.93;;;15.80;92.10;;;;;;5074233;28;20497;-38
2023/06/13 02:45:46;;;;;;;9.13;7.05;;;15.70;92.20;;;;;;5076101;28;20051;-38
2023/06/13 02:48:12;;;;;;;9.07;6.38;;;15.70;92.20;;;;;;5074270;28;20051;-38
2023/06/13 02:50:37;;;;;;;9.90;6.65;;;15.60;92.30;;;;;;5075672;28;20155;-38
2023/06/13 02:53:03;;;;;;;13.68;7.45;;;15.60;92.40;;;;;;5075404;28;20123;-39
2023/06/13 02:55:29;;;;;;;9.32;6.95;;;15.60;92.40;;;;;;5076079;28;20105;-38
2023/06/13 02:57:55;;;;;;;8.27;6.38;;;15.60;92.50;;;;;;5074206;28;20048;-38
2023/06/13 03:00:21;;;;;;;10.60;6.97;;;15.50;92.50;;;;;;5075673;28;20535;-38
2023/06/13 03:02:47;;;;;;;9.50;7.53;;;15.50;92.50;;;;;;5076152;28;20092;-38
2023/06/13 03:05:16;;;;;;;10.98;7.07;;;15.50;92.50;;;;;;5076135;28;20478;-38
2023/06/13 03:07:48;;;;;;;8.52;7.40;;;15.50;92.60;;;;;;5057714;28;20590;-38
2023/06/13 03:10:15;;;;;;;8.20;6.60;;;15.50;92.60;;;;;;5076072;28;20044;-38
2023/06/13 03:12:41;;;;;;;8.85;7.30;;;15.50;92.70;;;;;;5075914;28;20055;-38
2023/06/13 03:15:08;;;;;;;7.85;7.00;;;15.50;92.70;;;;;;5075118;28;20497;-38
2023/06/13 03:17:34;;;;;;;12.30;7.00;;;15.40;92.90;;;;;;5075257;28;20078;-38
2023/06/13 03:20:00;;;;;;;8.52;7.40;;;15.40;93.00;;;;;;5075308;28;20044;-38
2023/06/13 03:22:25;;;;;;;8.65;7.03;;;15.40;93.00;;;;;;5074246;28;20047;-38
2023/06/13 03:24:52;;;;;;;11.13;7.25;;;15.40;93.10;;;;;;5075072;28;20477;-38
2023/06/13 03:27:18;;;;;;;9.23;6.93;;;15.40;93.10;;;;;;5074778;28;20421;-38
2023/06/13 03:29:46;;;;;;;10.10;7.22;;;15.30;93.20;;;;;;5075768;28;20070;-39
2023/06/13 03:32:12;;;;;;;10.57;7.93;;;15.30;93.30;;;;;;5074239;28;20055;-38
2023/06/13 03:34:39;;;;;;;9.73;7.63;;;15.40;93.40;;;;;;5074855;28;20047;-38
2023/06/13 03:37:06;;;;;;;9.43;7.03;;;15.40;93.50;;;;;;5065079;28;20159;-38
2023/06/13 03:39:32;;;;;;;9.45;6.82;;;15.40;93.50;;;;;;5067937;28;20094;-39
2023/06/13 03:41:59;;;;;;;9.75;6.60;;;15.40;93.70;;;;;;5074667;28;20052;-38
2023/06/13 03:44:25;;;;;;;12.73;7.10;;;15.50;93.80;;;;;;5073155;28;20052;-38
2023/06/13 03:46:51;;;;;;;9.05;7.07;;;15.70;93.80;;;;;;5074821;28;20058;-39
2023/06/13 03:49:18;;;;;;;9.80;7.53;;;16.00;93.90;;;;;;5074782;28;20051;-38
2023/06/13 03:51:44;;;;;;;9.85;6.85;;;16.50;93.50;;;;;;5075532;28;20052;-39
2023/06/13 03:54:10;;;;;;;10.77;6.88;;;17.20;93.10;;;;;;5074028;28;20118;-39
2023/06/13 03:56:36;;;;;;;9.27;6.78;;;17.80;92.30;;;;;;5074824;28;20101;-39
2023/06/13 03:59:02;;;;;;;11.30;7.22;;;18.40;91.60;;;;;;5073634;28;20056;-38
2023/06/13 04:01:28;;;;;;;8.60;7.10;;;18.90;90.80;;;;;;5064505;28;20044;-39
2023/06/13 04:03:55;;;;;;;9.10;8.07;;;19.30;90.60;;;;;;5069943;28;20551;-39
2023/06/13 04:06:21;;;;;;;8.05;7.05;;;19.90;90.00;;;;;;5073266;28;20043;-39
2023/06/13 04:08:46;;;;;;;11.70;8.60;;;20.50;88.60;;;;;;5074695;28;20043;-39
2023/06/13 04:11:12;;;;;;;11.80;7.22;;;21.10;87.10;;;;;;5074619;28;20119;-39
2023/06/13 04:13:38;;;;;;;10.13;7.20;;;21.50;85.80;;;;;;5073391;28;20163;-39
2023/06/13 04:16:04;;;;;;;7.47;6.75;;;22.00;84.40;;;;;;5072573;28;20052;-39
2023/06/13 04:18:30;;;;;;;7.35;6.53;;;22.50;83.60;;;;;;5072171;28;20051;-39
2023/06/13 04:20:56;;;;;;;9.90;6.53;;;22.90;82.40;;;;;;5074686;28;20040;-39
2023/06/13 04:23:25;;;;;;;8.20;6.47;;;23.40;81.50;;;;;;5074354;28;20396;-39
2023/06/13 04:25:51;;;;;;;10.20;7.30;;;23.70;79.30;;;;;;5074404;28;20106;-39
2023/06/13 04:28:17;;;;;;;12.98;6.95;;;24.10;79.80;;;;;;5073775;28;20047;-40
2023/06/13 04:30:46;;;;;;;10.13;6.78;;;24.50;77.70;;;;;;5074780;28;20077;-40
2023/06/13 04:33:17;;;;;;;11.50;7.20;;;24.90;78.00;;;;;;5072340;28;20044;-40
2023/06/13 04:35:48;;;;;;;8.82;6.93;;;25.00;75.30;;;;;;5055940;28;20044;-40
2023/06/13 04:38:16;;;;;;;8.23;6.45;;;25.50;76.40;;;;;;5064087;28;20048;-40
2023/06/13 04:40:42;;;;;;;9.45;6.70;;;25.80;75.80;;;;;;5068880;28;20051;-40
2023/06/13 04:43:09;;;;;;;7.82;7.00;;;26.20;74.60;;;;;;5071136;28;20044;-40
2023/06/13 04:45:36;;;;;;;7.15;6.45;;;26.40;74.70;;;;;;5073846;28;20078;-40
2023/06/13 04:48:03;;;;;;;6.78;5.75;;;27.10;74.30;;;;;;5072932;28;20052;-40
2023/06/13 04:50:29;;;;;;;7.70;7.00;;;27.70;73.40;;;;;;5072851;28;20044;-40
2023/06/13 04:52:55;;;;;;;9.95;5.93;;;27.70;71.90;;;;;;5071849;28;20471;-41
2023/06/13 04:55:22;;;;;;;9.55;6.85;;;27.90;71.40;;;;;;5073952;28;20100;-41
2023/06/13 04:57:48;;;;;;;7.32;6.63;;;28.20;71.10;;;;;;5072232;28;20120;-40
2023/06/13 05:00:15;;;;;;;9.32;6.60;;;28.40;70.30;;;;;;5072704;28;20048;-41
2023/06/13 05:02:41;;;;;;;9.15;6.45;;;28.20;70.60;;;;;;5073396;28;20048;-41
2023/06/13 05:05:08;;;;;;;10.80;5.97;;;28.70;69.90;;;;;;5073489;28;20396;-41
2023/06/13 05:07:35;;;;;;;12.30;6.45;;;28.80;70.40;;;;;;5073045;28;20063;-41
2023/06/13 05:10:02;;;;;;;9.77;6.38;;;29.40;70.10;;;;;;5073674;28;20083;-42
2023/06/13 05:12:28;;;;;;;9.70;6.38;;;29.70;69.10;;;;;;5073774;28;20056;-41
2023/06/13 05:14:54;;;;;;;11.05;6.15;;;29.90;68.40;;;;;;5072890;28;20050;-41
2023/06/13 05:17:21;;;;;;;10.55;6.53;;;30.20;67.80;;;;;;5073280;28;20040;-41
2023/06/13 05:19:47;;;;;;;13.65;6.35;;;30.30;67.10;;;;;;5073820;28;20466;-41
2023/06/13 05:22:13;;;;;;;8.48;6.05;;;30.30;67.30;;;;;;5076257;28;20104;-41
2023/06/13 05:24:38;;;;;;;7.13;6.25;;;30.30;67.40;;;;;;5077443;28;20044;-41
2023/06/13 05:27:04;;;;;;;7.20;6.55;;;30.50;67.30;;;;;;5076706;28;20538;-40
2023/06/13 05:29:30;;;;;;;8.00;5.82;;;30.30;66.60;;;;;;5077001;28;20040;-41
2023/06/13 05:31:57;;;;;;;6.43;5.63;;;30.20;66.60;;;;;;5075171;28;20619;-41
2023/06/13 05:34:23;;;;;;;7.03;5.78;;;30.10;66.60;;;;;;5076786;28;20119;-41
2023/06/13 05:36:49;;;;;;;8.27;6.43;;;29.90;66.40;;;;;;5071439;28;20048;-41
2023/06/13 05:39:18;;;;;;;7.22;6.03;;;29.80;66.60;;;;;;5067538;28;20060;-41
2023/06/13 05:41:43;;;;;;;9.68;6.28;;;30.00;66.60;;;;;;5064415;28;20043;-41
2023/06/13 05:44:09;;;;;;;9.20;5.85;;;30.30;66.40;;;;;;5075083;28;20051;-41
2023/06/13 05:46:35;;;;;;;6.80;6.10;;;30.70;65.80;;;;;;5077910;28;20525;-41
2023/06/13 05:49:00;;;;;;;7.03;5.63;;;30.50;65.30;;;;;;5076346;28;20515;-41
2023/06/13 05:51:26;;;;;;;9.82;6.28;;;30.90;65.70;;;;;;5076798;28;20129;-41
2023/06/13 05:53:52;;;;;;;9.43;6.40;;;30.90;64.90;;;;;;5075748;28;20110;-41
2023/06/13 05:56:17;;;;;;;7.30;5.82;;;30.90;63.60;;;;;;5077341;28;20091;-41
2023/06/13 05:58:44;;;;;;;9.65;5.75;;;30.50;64.00;;;;;;5066538;28;20053;-40
2023/06/13 06:01:10;;;;;;;8.50;6.07;;;30.90;64.20;;;;;;5076534;28;20040;-42
2023/06/13 06:03:36;;;;;;;9.77;5.70;;;30.50;63.80;;;;;;5076439;28;20135;-41
2023/06/13 06:06:02;;;;;;;6.47;5.63;;;30.90;64.30;;;;;;5075086;28;20063;-41
2023/06/13 06:08:28;;;;;;;9.82;6.07;;;31.40;64.00;;;;;;5075501;28;20052;-41
2023/06/13 06:10:54;;;;;;;7.97;5.78;;;31.70;63.90;;;;;;5074373;28;20091;-41
2023/06/13 06:13:20;;;;;;;8.05;5.38;;;31.90;63.20;;;;;;5075489;28;20496;-42
2023/06/13 06:15:45;;;;;;;6.40;5.75;;;32.00;62.90;;;;;;5076575;28;20459;-41
2023/06/13 06:18:11;;;;;;;8.57;4.97;;;31.90;63.40;;;;;;5075834;28;20052;-42
2023/06/13 06:20:37;;;;;;;11.23;5.28;;;32.20;63.90;;;;;;5076718;28;20040;-43
2023/06/13 06:23:03;;;;;;;10.38;5.25;;;31.70;62.90;;;;;;5074490;28;20040;-41
2023/06/13 06:25:29;;;;;;;5.97;4.82;;;32.10;62.60;;;;;;5076693;28;20047;-41
2023/06/13 06:27:57;;;;;;;8.40;5.70;;;32.10;62.40;;;;;;5075798;28;20048;-41
2023/06/13 06:30:23;;;;;;;6.78;5.68;;;32.20;62.70;;;;;;5076189;28;20051;-42
2023/06/13 06:32:49;;;;;;;11.63;5.65;;;32.50;62.10;;;;;;5074839;28;20112;-42
2023/06/13 06:35:15;;;;;;;8.20;5.38;;;31.90;63.00;;;;;;5077155;28;20059;-41
2023/06/13 06:37:42;;;;;;;9.52;5.78;;;32.40;62.70;;;;;;5064286;28;20479;-41
2023/06/13 06:40:09;;;;;;;7.75;5.85;;;32.40;62.90;;;;;;5070275;28;20044;-41
2023/06/13 06:42:35;;;;;;;7.57;5.88;;;32.60;62.40;;;;;;5073838;28;20575;-41
2023/06/13 06:45:02;;;;;;;7.38;5.72;;;32.30;62.40;;;;;;5073922;28;20079;-42
2023/06/13 06:47:28;;;;;;;8.82;5.53;;;32.10;63.50;;;;;;5071732;28;20167;-41
2023/06/13 06:49:53;;;;;;;9.95;6.50;;;32.40;63.70;;;;;;5075730;28;20040;-42
2023/06/13 06:52:19;;;;;;;17.85;7.15;;;32.40;62.90;;;;;;5075633;28;20705;-41
2023/06/13 06:54:45;;;;;;;25.98;7.57;;;32.50;63.10;;;;;;5076523;28;20048;-41
2023/06/13 06:57:10;;;;;;;11.48;6.05;;;32.40;63.60;;;;;;5075182;28;20051;-41
2023/06/13 06:59:36;;;;;;;8.00;5.78;;;32.40;63.80;;;;;;5075504;28;20048;-41
2023/06/13 07:02:03;;;;;;;9.68;5.90;;;32.60;63.40;;;;;;5074389;28;20518;-41
2023/06/13 07:04:28;;;;;;;6.75;5.60;;;33.20;63.20;;;;;;5074244;28;20048;-42
2023/06/13 07:06:54;;;;;;;6.55;5.53;;;33.20;63.00;;;;;;5074719;28;20040;-41
2023/06/13 07:09:20;;;;;;;7.20;5.55;;;33.20;63.00;;;;;;5074252;28;20339;-39
2023/06/13 07:11:46;;;;;;;7.65;5.95;;;33.40;61.90;;;;;;5075644;28;20159;-40
2023/06/13 07:14:12;;;;;;;10.02;5.03;;;33.00;61.30;;;;;;5055756;28;20512;-40
2023/06/13 07:16:37;;;;;;;9.27;5.53;;;32.70;59.80;;;;;;5074414;28;20044;-40
2023/06/13 07:19:03;;;;;;;8.48;5.10;;;32.10;59.30;;;;;;5074462;28;20044;-40
2023/06/13 07:21:29;;;;;;;5.60;4.88;;;31.30;58.90;;;;;;5075065;28;20143;-40
2023/06/13 07:23:54;;;;;;;6.70;5.03;;;30.40;59.40;;;;;;5074783;28;20054;-39
2023/06/13 07:26:21;;;;;;;8.30;5.40;;;29.60;60.80;;;;;;5074395;28;20074;-40
2023/06/13 07:28:47;;;;;;;8.65;5.53;;;28.60;61.20;;;;;;5074511;28;20055;-40
2023/06/13 07:31:13;;;;;;;7.15;4.82;;;27.80;61.80;;;;;;5075773;28;20036;-39
2023/06/13 07:33:39;;;;;;;9.30;5.32;;;27.30;62.60;;;;;;5074773;28;20051;-40
2023/06/13 07:36:05;;;;;;;9.63;5.40;;;26.80;63.40;;;;;;5074654;28;20128;-39
2023/06/13 07:38:31;;;;;;;7.60;5.28;;;26.30;63.30;;;;;;5068047;28;20436;-40
2023/06/13 07:40:57;;;;;;;9.98;6.35;;;26.30;63.80;;;;;;5068346;28;20055;-40
2023/06/13 07:43:22;;;;;;;7.30;5.35;;;26.30;65.00;;;;;;5071146;28;20571;-40
2023/06/13 07:45:48;;;;;;;11.00;4.90;;;26.10;65.00;;;;;;5073366;28;20075;-39
2023/06/13 07:48:15;;;;;;;7.70;5.07;;;25.90;64.50;;;;;;5074750;28;20044;-40
2023/06/13 07:50:42;;;;;;;6.78;5.10;;;26.00;65.30;;;;;;5072331;28;20559;-40
2023/06/13 07:53:09;;;;;;;6.72;5.15;;;26.00;65.60;;;;;;5073894;28;20058;-40
2023/06/13 07:55:36;;;;;;;6.55;4.60;;;26.20;65.70;;;;;;5073877;28;20571;-39
2023/06/13 07:58:02;;;;;;;10.25;4.97;;;26.20;66.40;;;;;;5070897;28;20058;-39
2023/06/13 08:00:28;;;;;;;7.00;4.60;;;26.10;66.50;;;;;;5073857;28;20474;-39
2023/06/13 08:02:53;;;;;;;10.32;4.32;;;26.20;66.00;;;;;;5073077;28;20040;-39
2023/06/13 08:05:19;;;;;;;7.28;4.95;;;26.00;66.00;;;;;;5073891;28;20423;-40
2023/06/13 08:07:45;;;;;;;5.65;4.47;;;25.90;66.60;;;;;;5073545;28;20047;-40
2023/06/13 08:10:11;;;;;;;8.05;4.40;;;25.90;66.80;;;;;;5073171;28;20055;-40
2023/06/13 08:12:36;;;;;;;9.35;4.50;;;25.90;66.00;;;;;;5074564;28;20036;-40
2023/06/13 08:15:03;;;;;;;6.68;4.78;;;25.80;66.20;;;;;;5073264;28;20040;-39
2023/06/13 08:17:28;;;;;;;5.45;4.63;;;25.70;66.50;;;;;;5071318;28;20143;-39
2023/06/13 08:19:55;;;;;;;7.97;4.70;;;25.70;67.80;;;;;;5071670;28;20050;-40
2023/06/13 08:22:20;;;;;;;5.75;3.75;;;25.80;66.30;;;;;;5073520;28;20052;-40
2023/06/13 08:24:46;;;;;;;7.10;4.22;;;25.90;66.40;;;;;;5072964;28;20585;-40
2023/06/13 08:27:16;;;;;;;6.03;4.30;;;26.00;66.20;;;;;;5073793;28;20078;-39
2023/06/13 08:29:42;;;;;;;6.70;3.60;;;26.10;66.10;;;;;;5074386;28;20048;-39
2023/06/13 08:32:08;;;;;;;7.40;3.88;;;26.10;65.10;;;;;;5073877;28;20068;-40
2023/06/13 08:34:34;;;;;;;5.43;3.33;;;26.00;63.90;;;;;;5073111;28;20047;-40
2023/06/13 08:37:00;;;;;;;9.93;5.15;;;25.90;63.60;;;;;;5066655;28;20131;-46
2023/06/13 08:39:26;;;;;;;7.22;3.97;;;25.90;64.10;;;;;;5065732;28;20143;-39
2023/06/13 08:41:53;;;;;;;5.10;3.53;;;26.00;64.60;;;;;;5073728;28;20090;-39
2023/06/13 08:44:20;;;;;;;8.55;4.88;;;26.00;64.10;;;;;;5104756;27;20052;-40
2023/06/13 08:46:45;;;;;;;6.90;4.35;;;26.00;63.30;;;;;;5073809;28;20072;-40
2023/06/13 08:49:11;;;;;;;7.82;3.75;;;25.90;63.70;;;;;;5073599;28;20424;-40
2023/06/13 08:51:37;;;;;;;6.20;4.10;;;25.90;65.60;;;;;;5072595;28;20063;-40
2023/06/13 08:54:05;;;;;;;11.05;4.45;;;26.00;64.70;;;;;;5071821;28;20059;-39
2023/06/13 08:56:37;;;;;;;4.50;3.55;;;26.10;63.00;;;;;;5073126;28;20048;-39
2023/06/13 08:59:26;;;;;;;8.20;4.20;;;26.10;62.90;;;;;;5073341;28;20055;-40
2023/06/13 09:01:56;;;;;;;9.45;4.40;;;26.10;64.00;;;;;;5016779;28;20057;-39
2023/06/13 09:04:27;;;;;;;6.10;4.00;;;26.10;62.00;;;;;;4969883;28;20092;-40
2023/06/13 09:07:03;;;;;;;5.35;3.65;;;25.80;61.00;;;;;;5005307;28;20064;-40
2023/06/13 09:09:30;;;;;;;8.75;4.00;;;25.70;60.70;;;;;;5030616;28;20116;-39
2023/06/13 09:11:59;;;;;;;4.15;3.75;;;25.60;61.10;;;;;;5003215;28;20053;-40
2023/06/13 09:14:24;;;;;;;6.20;4.35;;;25.60;62.00;;;;;;5029082;28;20344;-39
2023/06/13 09:16:53;;;;;;;4.70;4.20;;;25.50;61.20;;;;;;5022200;28;20179;-39
2023/06/13 09:19:19;;;;;;;7.32;3.97;;;25.60;62.10;;;;;;5011063;28;20100;-40
2023/06/13 09:21:45;;;;;;;6.28;4.10;;;25.90;63.80;;;;;;5030109;28;20136;-40
2023/06/13 09:24:12;;;;;;;4.53;3.67;;;25.90;62.00;;;;;;5029374;28;20055;-40
2023/06/13 09:26:42;;;;;;;5.68;4.00;;;26.00;62.10;;;;;;5029041;28;20057;-40
2023/06/13 09:29:08;;;;;;;6.15;4.10;;;26.10;62.80;;;;;;5013655;28;20152;-41
2023/06/13 09:31:38;;;;;;;14.05;4.82;;;26.30;62.70;;;;;;5029853;28;20216;-40
2023/06/13 09:34:07;;;;;;;5.15;4.00;;;26.40;62.00;;;;;;5028663;28;20088;-39
2023/06/13 09:36:37;;;;;;;6.05;4.35;;;26.50;62.90;;;;;;4989793;28;20137;-40
2023/06/13 09:39:06;;;;;;;9.07;4.10;;;26.60;62.80;;;;;;5050527;28;20083;-39
2023/06/13 09:41:33;;;;;;;8.07;4.82;;;26.80;62.90;;;;;;5071419;28;20044;-39
2023/06/13 09:44:05;;;;;;;4.80;4.28;;;26.60;60.60;;;;;;5069830;28;20063;-40
2023/06/13 09:46:37;;;;;;;6.53;3.90;;;26.50;62.00;;;;;;5059395;28;20468;-40
2023/06/13 09:49:03;;;;;;;8.90;4.68;;;26.40;60.60;;;;;;5072752;28;20080;-40
2023/06/13 09:51:32;;;;;;;6.50;4.22;;;26.30;61.90;;;;;;5072837;28;20504;-41
2023/06/13 09:54:00;;;;;;;6.63;3.80;;;26.30;60.70;;;;;;5072469;28;20048;-40
2023/06/13 09:56:26;;;;;;;7.03;4.25;;;26.40;62.30;;;;;;5073274;28;20113;-41
2023/06/13 09:58:52;;;;;;;6.07;5.30;;;26.40;61.30;;;;;;5073256;28;21818;-41
2023/06/13 10:01:18;;;;;;;5.03;4.40;;;26.30;61.90;;;;;;5073057;28;20452;-41
2023/06/13 10:03:45;;;;;;;5.53;4.40;;;26.20;61.60;;;;;;5072605;28;20098;-41
2023/06/13 10:06:11;;;;;;;7.53;4.85;;;26.20;62.80;;;;;;5072750;28;20403;-40
2023/06/13 10:08:37;;;;;;;7.97;4.63;;;26.20;61.70;;;;;;5075191;28;20428;-42
2023/06/13 10:11:13;;;;;;;5.72;4.47;;;26.10;63.40;;;;;;5076992;28;20067;-41
2023/06/13 10:13:54;;;;;;;7.85;4.70;;;26.20;63.50;;;;;;5076084;28;20126;-40
2023/06/13 10:16:20;;;;;;;10.02;4.90;;;26.30;64.10;;;;;;5076195;28;20529;-40
2023/06/13 10:18:50;;;;;;;6.95;4.40;;;26.60;64.60;;;;;;5075755;28;20056;-41
2023/06/13 10:21:16;;;;;;;4.82;4.32;;;26.80;63.90;;;;;;5075533;28;20054;-41
2023/06/13 10:23:44;;;;;;;5.43;4.43;;;26.90;62.50;;;;;;5074809;28;20044;-41
2023/06/13 10:26:15;;;;;;;8.18;5.30;;;27.00;63.10;;;;;;5074753;28;20127;-41
2023/06/13 10:29:06;;;;;;;8.05;4.55;;;26.90;62.40;;;;;;5061969;28;20055;-41
2023/06/13 10:32:02;;;;;;;5.85;4.47;;;26.90;61.90;;;;;;5073195;28;20056;-41
2023/06/13 10:34:57;;;;;;;6.63;4.50;;;26.90;63.20;;;;;;5074403;28;20043;-41
2023/06/13 10:37:48;;;;;;;7.78;4.45;;;26.90;65.90;;;;;;5068762;28;20117;-41
2023/06/13 10:40:58;;;;;;;8.02;4.75;;;27.10;64.60;;;;;;5068693;28;20108;-42
2023/06/13 10:43:41;;;;;;;5.18;4.15;;;27.10;63.80;;;;;;4988656;28;20089;-40
2023/06/13 10:46:07;;;;;;;5.97;4.47;;;27.00;63.60;;;;;;4990226;28;20049;-41
2023/06/13 10:48:50;;;;;;;7.75;4.85;;;27.10;66.00;;;;;;4988766;28;20528;-42
2023/06/13 10:51:27;;;;;;;7.15;4.53;;;27.30;63.20;;;;;;4991581;28;20054;-42
2023/06/13 10:54:11;;;;;;;8.65;4.85;;;27.40;63.80;;;;;;4972522;28;20469;-41
2023/06/13 10:56:39;;;;;;;6.18;4.38;;;27.40;63.10;;;;;;4991215;28;20148;-41
2023/06/13 10:59:07;;;;;;;5.82;4.05;;;27.60;64.40;;;;;;4974580;28;20706;-41
2023/06/13 11:01:34;;;;;;;5.70;4.25;;;27.70;65.10;;;;;;4991131;28;20050;-41
2023/06/13 11:04:20;;;;;;;7.45;4.97;;;27.80;64.40;;;;;;4990915;28;20241;-41
2023/06/13 11:06:49;;;;;;;5.63;4.88;;;27.80;64.70;;;;;;4999147;28;20053;-42
2023/06/13 11:09:23;;;;;;;9.27;4.78;;;27.70;64.40;;;;;;4999141;28;20633;-41
2023/06/13 11:11:58;;;;;;;6.75;4.32;;;27.60;64.80;;;;;;4988590;28;20053;-41
2023/06/13 11:14:26;;;;;;;6.50;4.93;;;27.70;63.10;;;;;;5038508;28;20055;-40
2023/06/13 11:16:53;;;;;;;5.88;5.28;;;27.60;63.60;;;;;;5072054;28;20043;-42
2023/06/13 11:19:24;;;;;;;7.05;4.55;;;27.70;64.10;;;;;;5073620;28;20059;-41
2023/06/13 11:22:06;;;;;;;7.50;4.90;;;27.80;64.30;;;;;;5074009;28;20647;-41
2023/06/13 11:24:33;;;;;;;7.07;4.32;;;27.80;63.90;;;;;;5074643;28;20068;-41
2023/06/13 11:27:00;;;;;;;9.20;4.53;;;27.90;63.40;;;;;;5073992;28;20492;-42
2023/06/13 11:29:29;;;;;;;7.03;4.80;;;27.80;62.00;;;;;;5074310;28;20087;-41
2023/06/13 11:31:55;;;;;;;6.68;4.43;;;27.70;63.40;;;;;;5074195;28;20048;-40
2023/06/13 11:34:24;;;;;;;5.32;4.47;;;27.60;63.30;;;;;;5073838;28;20043;-41
2023/06/13 11:36:53;;;;;;;6.47;4.68;;;27.50;63.00;;;;;;5072343;28;20043;-41
2023/06/13 11:39:46;;;;;;;5.50;4.32;;;27.60;63.80;;;;;;5069953;28;20069;-41
2023/06/13 11:42:12;;;;;;;4.60;4.20;;;27.60;62.80;;;;;;5072413;28;20036;-41
2023/06/13 11:44:38;;;;;;;5.72;4.43;;;27.60;64.10;;;;;;5071823;28;20036;-41
2023/06/13 11:47:04;;;;;;;4.53;4.13;;;27.60;63.10;;;;;;5070627;28;20048;-41
2023/06/13 11:49:30;;;;;;;6.65;4.68;;;27.70;65.00;;;;;;5071990;28;20093;-41
2023/06/13 11:51:56;;;;;;;7.93;4.95;;;27.70;64.00;;;;;;5072802;28;20131;-41
2023/06/13 11:54:29;;;;;;;7.88;4.55;;;27.90;63.40;;;;;;5072408;28;20852;-42
2023/06/13 11:56:55;;;;;;;10.93;4.30;;;27.80;63.10;;;;;;5072684;28;20059;-41
2023/06/13 11:59:23;;;;;;;10.77;4.53;;;27.70;64.50;;;;;;5073707;28;20048;-41
2023/06/13 12:01:52;;;;;;;6.22;4.78;;;27.60;65.60;;;;;;5073316;28;20044;-40
2023/06/13 12:04:18;;;;;;;9.63;4.55;;;27.60;64.60;;;;;;5074818;28;20088;-41
2023/06/13 12:06:44;;;;;;;7.10;4.53;;;27.60;63.40;;;;;;5074044;28;20468;-41
2023/06/13 12:09:10;;;;;;;7.80;4.20;;;27.60;66.10;;;;;;5074048;28;20040;-42
2023/06/13 12:11:36;;;;;;;6.53;3.97;;;27.70;66.30;;;;;;5074406;28;20800;-41
2023/06/13 12:14:03;;;;;;;4.57;4.18;;;27.80;66.00;;;;;;5073465;28;20792;-41
2023/06/13 12:16:36;;;;;;;11.23;3.67;;;27.80;66.90;;;;;;5072071;28;20052;-41
2023/06/13 12:19:07;;;;;;;7.30;4.57;;;27.80;69.00;;;;;;5074309;28;20083;-42
2023/06/13 12:21:35;;;;;;;7.13;4.03;;;27.60;66.80;;;;;;5074192;28;20093;-41
2023/06/13 12:24:03;;;;;;;5.10;4.43;;;27.60;67.30;;;;;;5072915;28;20048;-41
2023/06/13 12:26:32;;;;;;;7.70;4.03;;;27.50;68.30;;;;;;5071513;28;20048;-41
2023/06/13 12:29:02;;;;;;;8.52;4.20;;;27.40;67.80;;;;;;5073581;28;20048;-41
2023/06/13 12:31:48;;;;;;;7.85;4.15;;;27.40;73.00;;;;;;5073040;28;20036;-41
2023/06/13 12:34:28;;;;;;;5.32;4.43;;;27.40;74.10;;;;;;5070386;28;20150;-44
2023/06/13 12:37:06;;;;;;;6.57;4.15;;;27.20;74.00;;;;;;5067080;28;20109;-43
2023/06/13 12:39:33;;;;;;;8.88;4.80;;;26.90;74.50;;;;;;5065528;28;20382;-41
2023/06/13 12:42:02;;;;;;;7.55;4.45;;;26.90;70.20;;;;;;5068901;28;20185;-41
2023/06/13 12:44:33;;;;;;;6.40;4.03;;;26.90;70.50;;;;;;5067997;28;20055;-41
2023/06/13 12:47:03;;;;;;;6.57;4.03;;;26.80;73.00;;;;;;5068899;28;20048;-41
2023/06/13 12:49:39;;;;;;;8.77;4.15;;;26.80;76.20;;;;;;5069574;28;20051;-41
2023/06/13 12:52:15;;;;;;;7.25;4.10;;;26.70;73.50;;;;;;5068606;28;20581;-41